North Fork, Pennsylvania
Current Conditions -  °F | °C
As of 11:15 AM on Sunday 25 Jan 2015 (Local Time) from KN38 Reporting Station
Overcast Overcast  
Wind Chill: 15°   Ceiling: 4300
Heat Index: 25°   Visibility: 10mi
Dew Point: 12°   Wind: 10mph
Humidity: 59%   Direction: 350°N
Pressure: 29.77"   Gusts: NA
Location:  41.9252°N, 77.5198°W
Report Text: KN38 251615Z AUTO 35009KT 10SM OVC043 M04/M11 A2977 RMK AO2
Loading
Personal Weather Stations






























Interactive Weather Map New forecast layout! Learn more

10-Day Weather Forecast

Advertisements
Track Severe Weather on mobile